createdAt,value
2023-05-04T00:02:12.987Z,52.16
2023-05-04T00:04:43.076Z,52.59
2023-05-04T00:07:11.114Z,52.07
2023-05-04T00:09:39.494Z,52.16
2023-05-04T00:12:08.222Z,52.15
2023-05-04T00:14:37.365Z,52.50
2023-05-04T00:17:06.850Z,52.27
2023-05-04T00:19:36.328Z,51.72
2023-05-04T00:22:04.100Z,51.84
2023-05-04T00:24:32.248Z,51.64
2023-05-04T00:27:00.117Z,51.72
2023-05-04T00:29:28.131Z,52.11
2023-05-04T00:31:56.418Z,51.67
2023-05-04T00:34:24.632Z,51.75
2023-05-04T00:36:52.576Z,51.60
2023-05-04T00:39:20.540Z,51.83
2023-05-04T00:41:48.709Z,51.37
2023-05-04T00:44:16.550Z,51.75
2023-05-04T00:46:45.118Z,51.32
2023-05-04T00:49:13.914Z,51.50
2023-05-04T00:51:41.989Z,51.25
2023-05-04T00:54:10.206Z,51.18
2023-05-04T00:56:42.335Z,51.50
2023-05-04T00:59:10.445Z,51.60
2023-05-04T01:01:38.295Z,51.53
2023-05-04T01:04:06.977Z,51.26
2023-05-04T01:07:00.716Z,51.06
2023-05-04T01:09:50.319Z,51.28
2023-05-04T01:12:26.655Z,51.42
2023-05-04T01:14:56.448Z,51.46
2023-05-04T01:17:24.496Z,51.19
2023-05-04T01:19:54.273Z,51.07
2023-05-04T01:22:22.371Z,50.99
2023-05-04T01:24:51.233Z,51.01
2023-05-04T01:27:32.242Z,51.24
2023-05-04T01:30:15.284Z,51.33
2023-05-04T01:32:46.287Z,50.92
2023-05-04T01:35:17.170Z,51.26
2023-05-04T01:37:47.690Z,51.28
2023-05-04T01:40:16.142Z,50.90
2023-05-04T01:42:43.954Z,50.86
2023-05-04T01:45:13.250Z,51.18
2023-05-04T01:47:42.588Z,50.89
2023-05-04T01:50:10.894Z,50.87
2023-05-04T01:52:39.025Z,50.84
2023-05-04T01:55:06.820Z,50.66
2023-05-04T01:57:34.547Z,50.74
2023-05-04T02:00:02.515Z,50.99
2023-05-04T02:02:43.947Z,50.94
2023-05-04T02:05:16.241Z,50.82
2023-05-04T02:07:43.912Z,50.98
2023-05-04T02:10:11.873Z,51.17
2023-05-04T02:12:39.823Z,50.94
2023-05-04T02:15:08.194Z,51.06
2023-05-04T02:17:35.969Z,50.96
2023-05-04T02:20:05.324Z,50.94
2023-05-04T02:22:33.374Z,50.60
2023-05-04T02:25:01.103Z,50.59
2023-05-04T02:27:29.001Z,50.92
2023-05-04T02:29:58.585Z,50.71
2023-05-04T02:32:26.847Z,50.81
2023-05-04T02:34:54.806Z,50.63
2023-05-04T02:37:22.626Z,50.50
2023-05-04T02:39:51.597Z,50.42
2023-05-04T02:42:19.762Z,50.38
2023-05-04T02:44:47.699Z,50.58
2023-05-04T02:47:15.511Z,50.34
2023-05-04T02:49:43.556Z,50.56
2023-05-04T02:52:11.778Z,50.64
2023-05-04T02:54:39.639Z,50.47
2023-05-04T02:57:07.394Z,50.44
2023-05-04T02:59:35.352Z,50.53
2023-05-04T03:02:03.097Z,50.36
2023-05-04T03:04:31.514Z,50.38
2023-05-04T03:06:59.216Z,50.59
2023-05-04T03:09:26.932Z,50.20
2023-05-04T03:11:55.355Z,50.01
2023-05-04T03:14:23.067Z,50.34
2023-05-04T03:16:51.504Z,50.31
2023-05-04T03:19:20.115Z,50.34
2023-05-04T03:21:48.570Z,50.55
2023-05-04T03:24:18.257Z,50.44
2023-05-04T03:26:47.414Z,50.83
2023-05-04T03:29:15.462Z,50.73
2023-05-04T03:31:43.263Z,50.85
2023-05-04T03:34:15.235Z,50.85
2023-05-04T03:36:42.955Z,50.73
2023-05-04T03:39:10.844Z,50.88
2023-05-04T03:41:38.586Z,50.47
2023-05-04T03:44:06.557Z,50.50
2023-05-04T03:46:35.977Z,50.69
2023-05-04T03:49:04.012Z,50.85
2023-05-04T03:51:31.817Z,50.92
2023-05-04T03:53:59.517Z,50.43
2023-05-04T03:56:27.263Z,50.66
2023-05-04T03:58:55.290Z,50.64
2023-05-04T04:01:27.083Z,50.81
2023-05-04T04:03:54.908Z,50.51
2023-05-04T04:06:23.384Z,50.53
2023-05-04T04:08:51.211Z,50.64
2023-05-04T04:11:19.262Z,50.25
2023-05-04T04:13:46.957Z,50.28
2023-05-04T04:16:14.730Z,50.47
2023-05-04T04:18:42.411Z,50.61
2023-05-04T04:21:10.543Z,50.22
2023-05-04T04:23:38.468Z,50.42
2023-05-04T04:26:06.843Z,50.13
2023-05-04T04:28:34.624Z,50.00
2023-05-04T04:31:03.488Z,50.20
2023-05-04T04:33:31.395Z,50.13
2023-05-04T04:35:59.003Z,50.29
2023-05-04T04:38:26.914Z,50.31
2023-05-04T04:40:54.612Z,49.93
2023-05-04T04:43:22.439Z,50.42
2023-05-04T04:45:50.089Z,50.45
2023-05-04T04:48:19.375Z,50.35
2023-05-04T04:50:47.546Z,50.42
2023-05-04T04:53:15.184Z,51.72
2023-05-04T04:55:42.958Z,52.10
2023-05-04T04:58:10.817Z,51.36
2023-05-04T05:00:38.394Z,50.91
2023-05-04T05:03:06.656Z,51.08
2023-05-04T05:05:34.637Z,50.88
2023-05-04T05:08:02.682Z,50.84
2023-05-04T05:10:31.165Z,50.46
2023-05-04T05:12:58.819Z,49.92
2023-05-04T05:15:26.648Z,49.98
2023-05-04T05:17:54.534Z,50.42
2023-05-04T05:20:23.761Z,50.32
2023-05-04T05:22:52.308Z,50.27
2023-05-04T05:25:20.139Z,49.99
2023-05-04T05:27:47.816Z,50.05
2023-05-04T05:30:15.998Z,49.85
2023-05-04T05:32:44.165Z,50.09
2023-05-04T05:35:12.738Z,49.70
2023-05-04T05:37:40.764Z,49.32
2023-05-04T05:40:09.165Z,49.47
2023-05-04T05:42:37.257Z,49.06
2023-05-04T05:45:05.978Z,49.26
2023-05-04T05:47:33.646Z,48.83
2023-05-04T05:50:01.324Z,48.99
2023-05-04T05:52:29.270Z,49.00
2023-05-04T05:54:57.042Z,48.80
2023-05-04T05:57:24.732Z,48.94
2023-05-04T05:59:52.353Z,48.73
2023-05-04T06:02:20.197Z,48.83
2023-05-04T06:04:48.064Z,49.35
2023-05-04T06:07:16.094Z,49.09
2023-05-04T06:09:43.874Z,49.14
2023-05-04T06:12:13.723Z,49.47
2023-05-04T06:14:41.387Z,49.17
2023-05-04T06:17:16.884Z,49.58
2023-05-04T06:19:46.407Z,49.21
2023-05-04T06:22:14.994Z,49.36
2023-05-04T06:24:42.675Z,49.36
2023-05-04T06:27:10.442Z,50.10
2023-05-04T06:29:40.493Z,49.94
2023-05-04T06:32:11.520Z,50.18
2023-05-04T06:34:39.334Z,50.12
2023-05-04T06:37:07.150Z,50.53
2023-05-04T06:39:34.873Z,50.33
2023-05-04T06:42:03.417Z,50.14
2023-05-04T06:44:38.251Z,50.25
2023-05-04T06:47:07.781Z,50.23
2023-05-04T06:49:35.866Z,50.26
2023-05-04T06:52:03.967Z,50.43
2023-05-04T06:54:32.783Z,50.34
2023-05-04T06:57:02.997Z,50.13
2023-05-04T06:59:32.116Z,50.21
2023-05-04T07:02:00.044Z,50.04
2023-05-04T07:04:28.075Z,49.83
2023-05-04T07:06:56.176Z,49.16
2023-05-04T07:09:24.015Z,49.54
2023-05-04T07:11:51.788Z,49.00
2023-05-04T07:14:19.462Z,49.44
2023-05-04T07:16:47.133Z,49.39
2023-05-04T07:19:14.885Z,49.27
2023-05-04T07:21:42.987Z,49.37
2023-05-04T07:24:10.734Z,49.21
2023-05-04T07:26:38.454Z,49.05
2023-05-04T07:29:06.148Z,49.28
2023-05-04T07:31:35.226Z,48.74
2023-05-04T07:34:03.100Z,48.86
2023-05-04T07:36:31.017Z,48.65
2023-05-04T07:38:58.876Z,48.18
2023-05-04T07:41:26.676Z,48.44
2023-05-04T07:43:54.346Z,48.56
2023-05-04T07:46:22.219Z,48.54
2023-05-04T07:48:49.974Z,48.24
2023-05-04T07:51:17.723Z,48.01
2023-05-04T07:53:45.884Z,47.99
2023-05-04T07:56:14.095Z,47.41
2023-05-04T07:58:42.168Z,47.27
2023-05-04T08:01:09.958Z,47.31
2023-05-04T08:03:38.339Z,47.38
2023-05-04T08:06:07.875Z,47.27
2023-05-04T08:08:35.835Z,46.80
2023-05-04T08:11:18.545Z,46.73
2023-05-04T08:13:49.052Z,46.44
2023-05-04T08:16:17.398Z,46.68
2023-05-04T08:18:45.339Z,46.70
2023-05-04T08:21:13.450Z,46.76
2023-05-04T08:23:41.220Z,46.95
2023-05-04T08:26:09.303Z,46.16
2023-05-04T08:28:40.192Z,46.30
2023-05-04T08:31:08.344Z,46.64
2023-05-04T08:33:36.279Z,47.18
2023-05-04T08:36:08.367Z,46.28
2023-05-04T08:38:36.548Z,46.09
2023-05-04T08:41:05.095Z,46.29
2023-05-04T08:43:37.014Z,45.96
2023-05-04T08:46:06.786Z,45.93
2023-05-04T08:48:35.176Z,45.55
2023-05-04T08:51:04.412Z,45.57
2023-05-04T08:53:35.427Z,45.45
2023-05-04T08:56:09.674Z,44.25
2023-05-04T08:58:44.032Z,41.67
2023-05-04T09:01:12.465Z,41.85
2023-05-04T09:03:41.400Z,41.07
2023-05-04T09:06:11.738Z,40.72
2023-05-04T09:08:39.809Z,40.68
2023-05-04T09:11:08.700Z,40.64
2023-05-04T09:13:36.803Z,40.87
2023-05-04T09:16:05.392Z,40.24
2023-05-04T09:18:40.828Z,38.82
2023-05-04T09:21:08.691Z,39.29
2023-05-04T09:23:54.715Z,37.83
2023-05-04T09:26:30.921Z,38.78
2023-05-04T09:29:14.186Z,38.62
2023-05-04T09:31:43.861Z,37.75
2023-05-04T09:34:11.697Z,38.35
2023-05-04T09:36:39.747Z,37.62
2023-05-04T09:39:14.732Z,37.70
2023-05-04T09:41:43.645Z,38.35
2023-05-04T09:44:23.126Z,36.95
2023-05-04T09:46:58.853Z,37.79
2023-05-04T09:49:34.142Z,37.96
2023-05-04T09:52:03.533Z,37.73
2023-05-04T09:54:35.167Z,37.26
2023-05-04T09:57:12.239Z,36.73
2023-05-04T09:59:40.798Z,37.70
2023-05-04T10:02:21.238Z,36.96
2023-05-04T10:04:54.321Z,36.92
2023-05-04T10:07:23.395Z,36.39
2023-05-04T10:09:52.302Z,36.91
2023-05-04T10:12:20.000Z,37.38
2023-05-04T10:14:47.766Z,36.88
2023-05-04T10:17:35.383Z,37.34
2023-05-04T10:20:09.080Z,37.78
2023-05-04T10:23:04.859Z,38.90
2023-05-04T10:26:06.155Z,39.66
2023-05-04T10:28:39.964Z,40.99
2023-05-04T10:31:10.218Z,41.74
2023-05-04T10:33:42.105Z,41.97
2023-05-04T10:36:11.701Z,42.77
2023-05-04T10:38:40.600Z,42.59
2023-05-04T10:41:18.615Z,42.57
2023-05-04T10:43:53.271Z,42.06
2023-05-04T10:46:22.817Z,41.38
2023-05-04T10:48:51.424Z,41.00
2023-05-04T10:51:24.312Z,39.47
2023-05-04T10:53:52.982Z,39.67
2023-05-04T10:56:26.971Z,39.73
2023-05-04T10:58:55.318Z,39.48
2023-05-04T11:01:23.436Z,39.30
2023-05-04T11:03:52.800Z,39.08
2023-05-04T11:06:24.375Z,39.47
2023-05-04T11:09:01.249Z,39.21
2023-05-04T11:11:30.326Z,39.60
2023-05-04T11:14:00.644Z,39.47
2023-05-04T11:16:28.508Z,39.56
2023-05-04T11:19:07.771Z,39.20
2023-05-04T11:21:35.538Z,39.70
2023-05-04T11:24:03.544Z,40.06
2023-05-04T11:26:31.496Z,40.49
2023-05-04T11:28:59.320Z,40.68
2023-05-04T11:31:27.242Z,40.30
2023-05-04T11:33:55.290Z,40.46
2023-05-04T11:36:23.235Z,40.66
2023-05-04T11:38:51.485Z,41.36
2023-05-04T11:41:19.331Z,41.94
2023-05-04T11:43:47.493Z,41.93
2023-05-04T11:46:16.737Z,41.29
2023-05-04T11:48:45.152Z,40.69
2023-05-04T11:51:13.027Z,40.81
2023-05-04T11:53:41.874Z,41.19
2023-05-04T11:56:09.933Z,41.45
2023-05-04T11:58:38.037Z,41.74
2023-05-04T12:01:07.198Z,41.56
2023-05-04T12:03:52.932Z,41.69
2023-05-04T12:06:32.746Z,42.93
2023-05-04T12:09:07.225Z,43.81
2023-05-04T12:11:35.431Z,41.19
2023-05-04T12:14:06.341Z,40.78
2023-05-04T12:16:34.598Z,40.83
2023-05-04T12:19:15.059Z,40.31
2023-05-04T12:21:56.887Z,39.85
2023-05-04T12:24:26.937Z,40.59
2023-05-04T12:26:54.751Z,40.50
2023-05-04T12:29:22.618Z,41.77
2023-05-04T12:31:50.699Z,41.35
2023-05-04T12:34:18.611Z,41.08
2023-05-04T12:36:46.510Z,41.26
2023-05-04T12:39:14.419Z,42.79
2023-05-04T12:41:42.418Z,43.91
2023-05-04T12:44:11.857Z,43.04
2023-05-04T12:46:39.728Z,42.58
2023-05-04T12:49:08.680Z,42.30
2023-05-04T12:51:36.515Z,41.30
2023-05-04T12:54:04.428Z,41.48
2023-05-04T12:56:34.786Z,41.51
2023-05-04T12:59:04.060Z,40.61
2023-05-04T13:01:32.002Z,40.56
2023-05-04T13:03:59.890Z,39.97
2023-05-04T13:06:27.628Z,39.51
2023-05-04T13:08:55.431Z,39.69
2023-05-04T13:11:25.152Z,39.89
2023-05-04T13:13:53.626Z,39.14
2023-05-04T13:16:21.680Z,39.11
2023-05-04T13:18:49.424Z,38.17
2023-05-04T13:21:17.274Z,38.59
2023-05-04T13:23:44.956Z,38.67
2023-05-04T13:26:12.939Z,38.53
2023-05-04T13:28:40.950Z,37.62
2023-05-04T13:31:09.833Z,37.74
2023-05-04T13:33:41.290Z,38.13
2023-05-04T13:36:09.396Z,37.63
2023-05-04T13:38:37.600Z,37.41
2023-05-04T13:41:06.042Z,38.22
2023-05-04T13:43:33.821Z,37.93
2023-05-04T13:46:04.752Z,37.75
2023-05-04T13:48:35.296Z,38.03
2023-05-04T13:51:04.202Z,37.92
2023-05-04T13:53:32.205Z,38.66
2023-05-04T13:55:59.936Z,38.94
2023-05-04T13:58:27.687Z,39.16
2023-05-04T14:00:56.458Z,39.47
2023-05-04T14:03:24.329Z,39.22
2023-05-04T14:05:55.291Z,39.53
2023-05-04T14:08:23.107Z,39.72
2023-05-04T14:10:50.997Z,39.28
2023-05-04T14:13:18.814Z,39.39
2023-05-04T14:15:48.332Z,39.40
2023-05-04T14:18:16.220Z,39.65
2023-05-04T14:20:44.354Z,39.18
2023-05-04T14:23:12.063Z,39.53
2023-05-04T14:25:42.371Z,39.04
2023-05-04T14:28:10.377Z,39.20
2023-05-04T14:30:38.151Z,39.46
2023-05-04T14:33:05.939Z,39.20
2023-05-04T14:35:34.672Z,39.31
2023-05-04T14:38:02.394Z,39.29
2023-05-04T14:40:29.999Z,38.87
2023-05-04T14:42:59.742Z,38.80
2023-05-04T14:45:27.574Z,39.04
2023-05-04T14:47:55.627Z,38.81
2023-05-04T14:50:23.388Z,37.70
2023-05-04T14:52:51.131Z,38.09
2023-05-04T14:55:18.813Z,38.19
2023-05-04T14:57:46.556Z,38.12
2023-05-04T15:00:15.112Z,38.07
2023-05-04T15:02:43.051Z,37.96
2023-05-04T15:05:12.705Z,38.31
2023-05-04T15:07:40.698Z,37.79
2023-05-04T15:10:10.729Z,38.17
2023-05-04T15:12:39.693Z,38.11
2023-05-04T15:15:08.992Z,38.24
2023-05-04T15:17:36.837Z,38.35
2023-05-04T15:20:05.879Z,38.40
2023-05-04T15:22:33.830Z,38.42
2023-05-04T15:25:02.085Z,37.84
2023-05-04T15:27:29.813Z,38.35
2023-05-04T15:29:58.784Z,38.24
2023-05-04T15:32:26.860Z,37.66
2023-05-04T15:35:04.490Z,37.70
2023-05-04T15:37:34.397Z,37.41
2023-05-04T15:40:03.470Z,37.80
2023-05-04T15:42:31.247Z,36.93
2023-05-04T15:44:59.038Z,37.43
2023-05-04T15:47:27.002Z,37.53
2023-05-04T15:49:54.834Z,37.97
2023-05-04T15:52:24.013Z,37.97
2023-05-04T15:54:51.829Z,38.05
2023-05-04T15:57:19.451Z,37.72
2023-05-04T15:59:49.627Z,37.52
2023-05-04T16:02:17.379Z,38.10
2023-05-04T16:04:45.494Z,38.17
2023-05-04T16:07:13.127Z,38.28
2023-05-04T16:09:41.190Z,38.32
2023-05-04T16:12:09.444Z,38.39
2023-05-04T16:14:37.453Z,38.61
2023-05-04T16:17:05.360Z,38.13
2023-05-04T16:19:33.834Z,37.13
2023-05-04T16:22:01.710Z,37.19
2023-05-04T16:24:29.425Z,37.33
2023-05-04T16:26:57.070Z,37.64
2023-05-04T16:29:24.874Z,37.94
2023-05-04T16:31:52.612Z,37.55
2023-05-04T16:34:20.788Z,37.42
2023-05-04T16:36:48.528Z,36.58
2023-05-04T16:39:18.900Z,37.00
2023-05-04T16:41:48.472Z,37.19
2023-05-04T16:44:16.153Z,37.41
2023-05-04T16:46:43.994Z,36.72
2023-05-04T16:49:14.692Z,37.06
2023-05-04T16:51:43.548Z,39.85
2023-05-04T16:54:12.591Z,38.46
2023-05-04T16:56:40.360Z,38.20
2023-05-04T16:59:07.993Z,38.05
2023-05-04T17:01:36.165Z,37.27
2023-05-04T17:04:04.257Z,38.94
2023-05-04T17:06:32.065Z,39.69
2023-05-04T17:09:00.484Z,39.35
2023-05-04T17:11:28.106Z,38.57
2023-05-04T17:13:56.257Z,38.16
2023-05-04T17:16:25.858Z,38.46
2023-05-04T17:18:53.638Z,39.03
2023-05-04T17:21:21.418Z,39.21
2023-05-04T17:23:49.150Z,39.30
2023-05-04T17:26:17.133Z,39.33
2023-05-04T17:28:45.761Z,39.61
2023-05-04T17:31:13.566Z,39.78
2023-05-04T17:33:41.676Z,39.70
2023-05-04T17:36:12.281Z,40.95
2023-05-04T17:38:40.702Z,40.75
2023-05-04T17:41:10.000Z,40.61
2023-05-04T17:43:38.029Z,40.64
2023-05-04T17:46:05.776Z,40.33
2023-05-04T17:48:33.653Z,40.36
2023-05-04T17:51:01.418Z,40.42
2023-05-04T17:53:31.537Z,40.62
2023-05-04T17:55:59.653Z,40.08
2023-05-04T17:58:27.564Z,40.34
2023-05-04T18:00:55.492Z,40.17
2023-05-04T18:03:23.383Z,40.20
2023-05-04T18:05:51.274Z,40.45
2023-05-04T18:08:19.052Z,40.35
2023-05-04T18:10:48.609Z,40.96
2023-05-04T18:13:16.525Z,40.37
2023-05-04T18:15:44.318Z,40.48
2023-05-04T18:18:12.168Z,40.81
2023-05-04T18:20:40.015Z,40.80
2023-05-04T18:23:07.963Z,40.87
2023-05-04T18:25:37.292Z,41.13
2023-05-04T18:28:08.190Z,41.46
2023-05-04T18:30:36.248Z,40.89
2023-05-04T18:33:04.053Z,41.47
2023-05-04T18:35:32.072Z,41.43
2023-05-04T18:37:59.868Z,41.13
2023-05-04T18:40:27.777Z,42.56
2023-05-04T18:42:55.730Z,42.27
2023-05-04T18:45:23.441Z,42.32
2023-05-04T18:47:51.171Z,42.13
2023-05-04T18:50:19.158Z,42.24
2023-05-04T18:52:46.885Z,41.90
2023-05-04T18:55:15.813Z,41.67
2023-05-04T18:57:44.354Z,41.18
2023-05-04T19:00:14.192Z,41.73
2023-05-04T19:02:42.006Z,41.61
2023-05-04T19:05:11.723Z,42.11
2023-05-04T19:07:41.007Z,41.72
2023-05-04T19:10:09.648Z,41.91
2023-05-04T19:12:37.564Z,41.99
2023-05-04T19:15:06.491Z,42.53
2023-05-04T19:17:34.625Z,42.13
2023-05-04T19:20:02.564Z,42.38
2023-05-04T19:22:32.111Z,42.30
2023-05-04T19:24:59.887Z,42.50
2023-05-04T19:27:28.023Z,42.72
2023-05-04T19:29:56.580Z,42.83
2023-05-04T19:32:25.183Z,42.92
2023-05-04T19:34:53.335Z,43.02
2023-05-04T19:37:21.093Z,43.19
2023-05-04T19:39:48.749Z,43.31
2023-05-04T19:42:17.041Z,43.36
2023-05-04T19:44:44.739Z,43.69
2023-05-04T19:47:12.884Z,43.91
2023-05-04T19:49:40.623Z,44.77
2023-05-04T19:52:08.431Z,44.22
2023-05-04T19:54:38.385Z,44.20
2023-05-04T19:57:06.159Z,44.84
2023-05-04T19:59:34.584Z,45.17
2023-05-04T20:02:02.316Z,45.33
2023-05-04T20:04:30.067Z,45.20
2023-05-04T20:06:57.796Z,44.92
2023-05-04T20:09:25.624Z,45.15
2023-05-04T20:11:53.290Z,45.42
2023-05-04T20:14:21.274Z,45.33
2023-05-04T20:16:49.097Z,45.65
2023-05-04T20:19:18.208Z,45.73
2023-05-04T20:21:46.050Z,45.71
2023-05-04T20:24:13.874Z,45.90
2023-05-04T20:26:41.750Z,46.14
2023-05-04T20:29:09.466Z,45.44
2023-05-04T20:31:37.291Z,45.39
2023-05-04T20:34:04.946Z,45.50
2023-05-04T20:36:33.504Z,45.81
2023-05-04T20:39:03.707Z,45.88
2023-05-04T20:41:32.494Z,46.07
2023-05-04T20:44:00.398Z,45.98
2023-05-04T20:46:28.218Z,45.73
2023-05-04T20:48:56.963Z,45.74
2023-05-04T20:51:25.045Z,45.68
2023-05-04T20:53:53.130Z,45.20
2023-05-04T20:56:22.130Z,45.75
2023-05-04T20:58:49.809Z,45.53
2023-05-04T21:01:17.650Z,45.86
2023-05-04T21:03:45.598Z,46.70
2023-05-04T21:06:13.533Z,47.35
2023-05-04T21:08:41.687Z,46.92
2023-05-04T21:11:09.537Z,47.23
2023-05-04T21:13:37.515Z,46.82
2023-05-04T21:16:05.773Z,46.61
2023-05-04T21:18:35.037Z,46.69
2023-05-04T21:21:05.104Z,46.52
2023-05-04T21:23:32.920Z,46.56
2023-05-04T21:26:02.650Z,46.69
2023-05-04T21:28:31.129Z,46.60
2023-05-04T21:30:59.469Z,46.40
2023-05-04T21:33:27.649Z,46.38
2023-05-04T21:35:58.246Z,46.73
2023-05-04T21:38:26.011Z,46.66
2023-05-04T21:40:53.766Z,46.75
2023-05-04T21:43:21.558Z,47.03
2023-05-04T21:45:49.669Z,47.18
2023-05-04T21:48:17.418Z,47.25
2023-05-04T21:50:45.305Z,47.10
2023-05-04T21:53:13.126Z,47.11
2023-05-04T21:55:46.951Z,47.34
2023-05-04T21:58:17.298Z,47.49
2023-05-04T22:00:45.077Z,47.24
2023-05-04T22:03:12.922Z,47.51
2023-05-04T22:05:40.605Z,47.63
2023-05-04T22:08:08.487Z,47.46
2023-05-04T22:10:36.817Z,47.60
2023-05-04T22:13:04.552Z,47.60
2023-05-04T22:15:42.043Z,47.44
2023-05-04T22:18:14.780Z,47.55
2023-05-04T22:20:43.612Z,47.43
2023-05-04T22:23:11.771Z,47.53
2023-05-04T22:25:40.028Z,47.70
2023-05-04T22:28:08.108Z,47.58
2023-05-04T22:30:36.013Z,47.53
2023-05-04T22:33:03.841Z,47.42
2023-05-04T22:35:31.808Z,47.52
2023-05-04T22:37:59.680Z,47.77
2023-05-04T22:40:27.677Z,47.92
2023-05-04T22:42:55.378Z,47.83
2023-05-04T22:45:23.468Z,47.78
2023-05-04T22:47:52.313Z,47.54
2023-05-04T22:50:20.451Z,47.76
2023-05-04T22:52:48.167Z,48.10
2023-05-04T22:55:16.358Z,48.08
2023-05-04T22:57:44.120Z,47.89
2023-05-04T23:00:12.565Z,47.89
2023-05-04T23:02:40.450Z,48.04
2023-05-04T23:05:09.476Z,48.02
2023-05-04T23:07:37.395Z,48.02
2023-05-04T23:10:05.893Z,47.89
2023-05-04T23:12:33.802Z,47.87
2023-05-04T23:15:01.572Z,48.29
2023-05-04T23:17:30.619Z,47.93
2023-05-04T23:19:58.247Z,48.02
2023-05-04T23:22:26.428Z,48.26
2023-05-04T23:24:54.159Z,48.16
2023-05-04T23:27:21.876Z,48.41
2023-05-04T23:29:49.650Z,48.09
2023-05-04T23:32:17.382Z,48.03
2023-05-04T23:34:46.901Z,47.99
2023-05-04T23:37:14.658Z,48.09
2023-05-04T23:39:45.142Z,47.85
2023-05-04T23:42:12.726Z,47.89
2023-05-04T23:44:40.386Z,48.09
2023-05-04T23:47:08.297Z,48.09
2023-05-04T23:49:36.052Z,47.91
2023-05-04T23:52:03.788Z,47.91
2023-05-04T23:54:31.954Z,47.57
2023-05-04T23:56:59.981Z,47.54
2023-05-04T23:59:27.708Z,47.53
